KLM777 EHAM-TNCM
Flight info
| Callsign | KLM777 |
|---|---|
| Flight time | N/A |
| Altitude | 33000 |
| Route | WOODY N872 MEDIL DCT KOVIN DCT NIDUV DCT KIHVI UN872 ERIGA UN741 AZFIC DCT LOTEE DCT PETEK DCT DETOX/M084F340 DCT LENSI DCT VSM DCT 35N030W/M084F360 32N040W 30N045W 28N050W 25N055W DCT RKDIA M576 OBIKE/N0494F360 L335 TRNKY |
| Aircraft | B77W/H-SDE1E2E3FGHIJ2J3J4J5M1RWXY/LB1D1 |
Departure
| Time | 2026-04-17 21:52 |
|---|---|
| Airport | Amsterdam Airport Schiphol (EHAM) |
Arrival
| Time | N/A |
|---|---|
| Airport | Princess Juliana International Airport (TNCM) |
| Time | Latitude | Longitude | Altitude | Speed | Heading |
|---|---|---|---|---|---|
| 2026-04-17 21:26 | 52.31003 | 4.77240 | 4 ft | 0 kts | 183° |
| 2026-04-17 21:38 | 52.31005 | 4.77241 | 4 ft | 2 kts | 183° |
| 2026-04-17 21:38 | 52.31031 | 4.77245 | 4 ft | 4 kts | 193° |
| 2026-04-17 21:39 | 52.31056 | 4.77259 | 4 ft | 4 kts | 211° |
| 2026-04-17 21:39 | 52.31075 | 4.77287 | 4 ft | 4 kts | 245° |
| 2026-04-17 21:39 | 52.31079 | 4.77301 | 4 ft | 0 kts | 259° |
| 2026-04-17 21:44 | 52.31076 | 4.77267 | 4 ft | 7 kts | 265° |
| 2026-04-17 21:45 | 52.31077 | 4.77174 | 4 ft | 10 kts | 273° |
| 2026-04-17 21:45 | 52.31081 | 4.77055 | 4 ft | 11 kts | 273° |
| 2026-04-17 21:45 | 52.31103 | 4.76947 | 4 ft | 11 kts | 321° |
| 2026-04-17 21:45 | 52.31172 | 4.76964 | 4 ft | 11 kts | 32° |
| 2026-04-17 21:46 | 52.31234 | 4.77030 | 4 ft | 11 kts | 33° |
| 2026-04-17 21:46 | 52.31291 | 4.77104 | 4 ft | 11 kts | 57° |
| 2026-04-17 21:46 | 52.31294 | 4.77224 | 4 ft | 11 kts | 93° |
| 2026-04-17 21:46 | 52.31290 | 4.77350 | 4 ft | 11 kts | 93° |
| 2026-04-17 21:47 | 52.31285 | 4.77475 | 4 ft | 11 kts | 93° |
| 2026-04-17 21:47 | 52.31278 | 4.77600 | 4 ft | 11 kts | 109° |
| 2026-04-17 21:47 | 52.31211 | 4.77639 | 4 ft | 11 kts | 182° |
| 2026-04-17 21:47 | 52.31133 | 4.77632 | 4 ft | 12 kts | 183° |
| 2026-04-17 21:48 | 52.31039 | 4.77623 | 4 ft | 15 kts | 183° |
| 2026-04-17 21:48 | 52.30936 | 4.77615 | 4 ft | 15 kts | 183° |
| 2026-04-17 21:48 | 52.30832 | 4.77605 | 4 ft | 15 kts | 184° |
| 2026-04-17 21:48 | 52.30729 | 4.77594 | 4 ft | 15 kts | 184° |
| 2026-04-17 21:49 | 52.30627 | 4.77572 | 4 ft | 15 kts | 202° |
| 2026-04-17 21:49 | 52.30555 | 4.77455 | 4 ft | 15 kts | 236° |
| 2026-04-17 21:49 | 52.30503 | 4.77375 | 3 ft | 9 kts | 183° |
| 2026-04-17 21:49 | 52.30446 | 4.77412 | 3 ft | 9 kts | 177° |
| 2026-04-17 21:50 | 52.30386 | 4.77385 | 2 ft | 9 kts | 184° |
| 2026-04-17 21:50 | 52.30324 | 4.77384 | 2 ft | 9 kts | 210° |
| 2026-04-17 21:50 | 52.30294 | 4.77324 | 1 ft | 0 kts | 237° |
| 2026-04-17 21:50 | 52.30292 | 4.77320 | 1 ft | 1 kts | 237° |
| 2026-04-17 21:51 | 52.30287 | 4.77306 | 1 ft | 0 kts | 237° |
| 2026-04-17 21:51 | 52.30253 | 4.77220 | 1 ft | 35 kts | 238° |
| 2026-04-17 21:51 | 52.29985 | 4.76521 | 3 ft | 109 kts | 238° |
| 2026-04-17 21:51 | 52.29462 | 4.75158 | 2 ft | 171 kts | 238° |
| 2026-04-17 21:52 | 52.28781 | 4.73385 | 402 ft | 183 kts | 238° |
| 2026-04-17 21:52 | 52.28097 | 4.71639 | 1188 ft | 182 kts | 237° |
| 2026-04-17 21:52 | 52.27411 | 4.69894 | 1826 ft | 187 kts | 236° |
| 2026-04-17 21:52 | 52.26458 | 4.68342 | 1907 ft | 207 kts | 203° |
| 2026-04-17 21:53 | 52.24972 | 4.68204 | 2075 ft | 232 kts | 162° |
| 2026-04-17 21:53 | 52.23496 | 4.69467 | 2379 ft | 246 kts | 154° |
| 2026-04-17 21:53 | 52.21968 | 4.70808 | 2970 ft | 252 kts | 156° |
| 2026-04-17 21:53 | 52.20398 | 4.72111 | 3659 ft | 254 kts | 157° |
| 2026-04-17 21:54 | 52.18808 | 4.73407 | 4336 ft | 258 kts | 157° |
| 2026-04-17 21:54 | 52.17217 | 4.74696 | 4976 ft | 258 kts | 160° |
| 2026-04-17 21:54 | 52.15489 | 4.75524 | 5482 ft | 261 kts | 171° |
| 2026-04-17 21:54 | 52.13702 | 4.76155 | 6112 ft | 265 kts | 171° |
| 2026-04-17 21:55 | 52.11892 | 4.76805 | 6767 ft | 267 kts | 171° |
| 2026-04-17 21:55 | 52.10065 | 4.77477 | 7362 ft | 271 kts | 170° |
| 2026-04-17 21:55 | 52.08217 | 4.78171 | 7965 ft | 274 kts | 170° |
| 2026-04-17 21:55 | 52.06348 | 4.78884 | 8567 ft | 278 kts | 170° |
| 2026-04-17 21:56 | 52.04454 | 4.79614 | 9174 ft | 281 kts | 169° |
| 2026-04-17 21:56 | 52.02536 | 4.80356 | 9744 ft | 285 kts | 169° |
| 2026-04-17 21:56 | 52.00597 | 4.81104 | 10321 ft | 288 kts | 169° |
| 2026-04-17 21:56 | 51.98604 | 4.81372 | 10571 ft | 294 kts | 193° |
| 2026-04-17 21:57 | 51.96673 | 4.80168 | 10712 ft | 305 kts | 209° |
| 2026-04-17 21:57 | 51.94719 | 4.78571 | 10864 ft | 325 kts | 208° |
| 2026-04-17 21:57 | 51.92621 | 4.76908 | 11029 ft | 346 kts | 208° |
| 2026-04-17 21:57 | 51.90409 | 4.75169 | 11386 ft | 360 kts | 207° |
| 2026-04-17 21:58 | 51.88129 | 4.73383 | 11997 ft | 368 kts | 207° |
| 2026-04-17 21:58 | 51.85811 | 4.71569 | 12794 ft | 371 kts | 207° |
| 2026-04-17 21:58 | 51.83476 | 4.69748 | 13642 ft | 374 kts | 207° |
| 2026-04-17 21:58 | 51.81117 | 4.67910 | 14431 ft | 378 kts | 207° |
| 2026-04-17 21:59 | 51.78738 | 4.66057 | 15180 ft | 382 kts | 207° |
| 2026-04-17 21:59 | 51.76338 | 4.64190 | 15946 ft | 384 kts | 207° |
| 2026-04-17 21:59 | 51.73919 | 4.62310 | 16706 ft | 388 kts | 207° |
| 2026-04-17 21:59 | 51.71478 | 4.60414 | 17446 ft | 391 kts | 208° |
| 2026-04-17 22:00 | 51.69013 | 4.58503 | 18149 ft | 395 kts | 208° |
| 2026-04-17 22:00 | 51.66522 | 4.56577 | 18830 ft | 399 kts | 208° |
| 2026-04-17 22:00 | 51.64014 | 4.54637 | 19486 ft | 401 kts | 208° |
| 2026-04-17 22:00 | 51.61495 | 4.52686 | 20143 ft | 403 kts | 208° |
| 2026-04-17 22:01 | 51.58955 | 4.50720 | 20790 ft | 406 kts | 208° |
| 2026-04-17 22:01 | 51.56398 | 4.48746 | 21399 ft | 410 kts | 208° |
| 2026-04-17 22:01 | 51.53797 | 4.46813 | 22016 ft | 413 kts | 206° |
| 2026-04-17 22:01 | 51.51142 | 4.44991 | 22649 ft | 417 kts | 205° |
| 2026-04-17 22:02 | 51.48457 | 4.43209 | 23221 ft | 420 kts | 205° |
| 2026-04-17 22:02 | 51.45738 | 4.41412 | 23729 ft | 425 kts | 205° |
| 2026-04-17 22:02 | 51.42993 | 4.39589 | 24177 ft | 429 kts | 205° |
| 2026-04-17 22:02 | 51.40235 | 4.37749 | 24674 ft | 431 kts | 205° |
| 2026-04-17 22:03 | 51.37535 | 4.35935 | 25168 ft | 433 kts | 205° |
| 2026-04-17 22:03 | 51.34751 | 4.34062 | 25652 ft | 435 kts | 205° |
| 2026-04-17 22:03 | 51.31951 | 4.32176 | 26109 ft | 438 kts | 205° |
| 2026-04-17 22:03 | 51.29132 | 4.30274 | 26546 ft | 441 kts | 205° |
| 2026-04-17 22:04 | 51.26297 | 4.28367 | 26976 ft | 444 kts | 205° |
| 2026-04-17 22:04 | 51.23440 | 4.26450 | 27362 ft | 447 kts | 205° |
| 2026-04-17 22:04 | 51.20559 | 4.24517 | 27750 ft | 450 kts | 205° |
| 2026-04-17 22:04 | 51.17664 | 4.22580 | 28154 ft | 453 kts | 205° |
| 2026-04-17 22:05 | 51.14751 | 4.20633 | 28540 ft | 455 kts | 205° |
| 2026-04-17 22:05 | 51.11865 | 4.18707 | 28899 ft | 457 kts | 205° |
| 2026-04-17 22:05 | 51.08924 | 4.16745 | 29250 ft | 460 kts | 205° |
| 2026-04-17 22:05 | 51.05928 | 4.14750 | 29587 ft | 462 kts | 205° |
| 2026-04-17 22:06 | 51.02994 | 4.12796 | 29898 ft | 464 kts | 205° |
| 2026-04-17 22:06 | 51.00004 | 4.10811 | 30217 ft | 466 kts | 205° |
| 2026-04-17 22:06 | 50.97013 | 4.08829 | 30568 ft | 465 kts | 205° |
| 2026-04-17 22:06 | 50.94029 | 4.06855 | 30962 ft | 464 kts | 205° |
| 2026-04-17 22:07 | 50.91058 | 4.04890 | 31334 ft | 462 kts | 205° |
| 2026-04-17 22:07 | 50.88093 | 4.02930 | 31676 ft | 462 kts | 205° |
| 2026-04-17 22:07 | 50.85125 | 4.00992 | 32012 ft | 461 kts | 205° |
| 2026-04-17 22:07 | 50.82155 | 3.99085 | 32337 ft | 461 kts | 205° |
| 2026-04-17 22:08 | 50.79187 | 3.97189 | 32651 ft | 460 kts | 205° |
| 2026-04-17 22:08 | 50.76219 | 3.95296 | 32936 ft | 460 kts | 204° |
| 2026-04-17 22:08 | 50.73246 | 3.93400 | 33127 ft | 462 kts | 204° |